sensor_id;sensor_type;location;lat;lon;timestamp;P1;durP1;ratioP1;P2;durP2;ratioP2
76935;SDS011;65881;52.438;16.744;2023-10-13T00:17:05;21.73;;;15.13;;
76935;SDS011;65881;52.438;16.744;2023-10-13T00:19:41;25.30;;;17.08;;
76935;SDS011;65881;52.438;16.744;2023-10-13T00:33:00;30.63;;;16.67;;
76935;SDS011;65881;52.438;16.744;2023-10-13T00:36:09;25.10;;;16.73;;
76935;SDS011;65881;52.438;16.744;2023-10-13T00:43:00;24.75;;;14.73;;
76935;SDS011;65881;52.438;16.744;2023-10-13T00:49:14;27.50;;;16.40;;
76935;SDS011;65881;52.438;16.744;2023-10-13T00:52:08;26.23;;;15.48;;
76935;SDS011;65881;52.438;16.744;2023-10-13T01:55:23;27.58;;;16.65;;
76935;SDS011;65881;52.438;16.744;2023-10-13T01:58:18;24.65;;;15.80;;
76935;SDS011;65881;52.438;16.744;2023-10-13T02:03:48;32.05;;;16.00;;
76935;SDS011;65881;52.438;16.744;2023-10-13T02:06:19;30.45;;;17.00;;
76935;SDS011;65881;52.438;16.744;2023-10-13T02:08:55;21.95;;;15.00;;
76935;SDS011;65881;52.438;16.744;2023-10-13T02:26:54;22.60;;;15.00;;
76935;SDS011;65881;52.438;16.744;2023-10-13T02:53:51;23.40;;;15.45;;
76935;SDS011;65881;52.438;16.744;2023-10-13T02:59:26;25.58;;;14.85;;
76935;SDS011;65881;52.438;16.744;2023-10-13T03:02:13;32.53;;;17.17;;
76935;SDS011;65881;52.438;16.744;2023-10-13T03:07:59;32.65;;;20.33;;
76935;SDS011;65881;52.438;16.744;2023-10-13T03:10:29;32.08;;;17.48;;
76935;SDS011;65881;52.438;16.744;2023-10-13T03:16:24;30.08;;;17.10;;
76935;SDS011;65881;52.438;16.744;2023-10-13T03:18:56;25.08;;;16.05;;
76935;SDS011;65881;52.438;16.744;2023-10-13T03:27:46;25.23;;;17.38;;
76935;SDS011;65881;52.438;16.744;2023-10-13T03:30:31;32.45;;;18.20;;
76935;SDS011;65881;52.438;16.744;2023-10-13T03:33:01;34.28;;;20.35;;
76935;SDS011;65881;52.438;16.744;2023-10-13T03:35:31;29.98;;;18.58;;
76935;SDS011;65881;52.438;16.744;2023-10-13T03:38:07;29.33;;;19.92;;
76935;SDS011;65881;52.438;16.744;2023-10-13T03:41:02;30.17;;;19.90;;
76935;SDS011;65881;52.438;16.744;2023-10-13T03:43:47;33.75;;;20.02;;
76935;SDS011;65881;52.438;16.744;2023-10-13T03:46:31;26.00;;;18.23;;
76935;SDS011;65881;52.438;16.744;2023-10-13T03:48:58;30.80;;;20.80;;
76935;SDS011;65881;52.438;16.744;2023-10-13T03:54:50;29.08;;;17.83;;
76935;SDS011;65881;52.438;16.744;2023-10-13T03:57:25;27.55;;;18.00;;
76935;SDS011;65881;52.438;16.744;2023-10-13T04:00:01;29.08;;;18.70;;
76935;SDS011;65881;52.438;16.744;2023-10-13T04:02:44;35.67;;;16.83;;
76935;SDS011;65881;52.438;16.744;2023-10-13T04:05:17;29.15;;;18.40;;
76935;SDS011;65881;52.438;16.744;2023-10-13T04:11:18;27.80;;;15.73;;
76935;SDS011;65881;52.438;16.744;2023-10-13T04:17:32;24.90;;;14.82;;
76935;SDS011;65881;52.438;16.744;2023-10-13T04:20:16;28.60;;;16.25;;
76935;SDS011;65881;52.438;16.744;2023-10-13T04:35:37;18.20;;;13.23;;
76935;SDS011;65881;52.438;16.744;2023-10-13T04:38:14;24.75;;;14.43;;
76935;SDS011;65881;52.438;16.744;2023-10-13T04:41:16;24.35;;;14.60;;
76935;SDS011;65881;52.438;16.744;2023-10-13T04:43:47;22.52;;;13.52;;
76935;SDS011;65881;52.438;16.744;2023-10-13T05:02:39;18.60;;;11.15;;
76935;SDS011;65881;52.438;16.744;2023-10-13T05:21:40;15.80;;;9.98;;
76935;SDS011;65881;52.438;16.744;2023-10-13T05:24:27;19.23;;;9.00;;
76935;SDS011;65881;52.438;16.744;2023-10-13T05:55:15;23.27;;;12.65;;
76935;SDS011;65881;52.438;16.744;2023-10-13T06:04:28;19.05;;;13.40;;
76935;SDS011;65881;52.438;16.744;2023-10-13T06:07:16;27.08;;;12.70;;
76935;SDS011;65881;52.438;16.744;2023-10-13T06:10:18;24.15;;;14.98;;
76935;SDS011;65881;52.438;16.744;2023-10-13T06:13:18;24.98;;;14.65;;
76935;SDS011;65881;52.438;16.744;2023-10-13T06:26:47;28.50;;;15.55;;
76935;SDS011;65881;52.438;16.744;2023-10-13T06:52:43;44.30;;;21.25;;
76935;SDS011;65881;52.438;16.744;2023-10-13T06:58:05;36.55;;;20.08;;
76935;SDS011;65881;52.438;16.744;2023-10-13T07:00:34;35.75;;;17.90;;
76935;SDS011;65881;52.438;16.744;2023-10-13T07:03:06;40.95;;;19.10;;
76935;SDS011;65881;52.438;16.744;2023-10-13T07:25:26;34.97;;;18.05;;
76935;SDS011;65881;52.438;16.744;2023-10-13T07:28:00;41.72;;;19.02;;
76935;SDS011;65881;52.438;16.744;2023-10-13T07:30:31;38.17;;;19.08;;
76935;SDS011;65881;52.438;16.744;2023-10-13T07:33:19;50.88;;;19.90;;
76935;SDS011;65881;52.438;16.744;2023-10-13T07:36:13;40.28;;;19.95;;
76935;SDS011;65881;52.438;16.744;2023-10-13T07:58:39;46.60;;;22.45;;
76935;SDS011;65881;52.438;16.744;2023-10-13T09:44:05;26.58;;;15.38;;
76935;SDS011;65881;52.438;16.744;2023-10-13T09:46:43;27.70;;;15.20;;
76935;SDS011;65881;52.438;16.744;2023-10-13T09:52:44;21.55;;;13.88;;
76935;SDS011;65881;52.438;16.744;2023-10-13T10:02:48;19.73;;;12.55;;
76935;SDS011;65881;52.438;16.744;2023-10-13T10:08:24;15.98;;;11.85;;
76935;SDS011;65881;52.438;16.744;2023-10-13T10:17:51;24.80;;;12.73;;
76935;SDS011;65881;52.438;16.744;2023-10-13T10:23:32;15.93;;;10.57;;
76935;SDS011;65881;52.438;16.744;2023-10-13T10:26:51;18.27;;;10.00;;
76935;SDS011;65881;52.438;16.744;2023-10-13T10:29:29;18.85;;;11.60;;
76935;SDS011;65881;52.438;16.744;2023-10-13T10:32:11;21.77;;;12.45;;
76935;SDS011;65881;52.438;16.744;2023-10-13T10:34:38;13.68;;;10.43;;
76935;SDS011;65881;52.438;16.744;2023-10-13T10:41:26;19.55;;;10.80;;
76935;SDS011;65881;52.438;16.744;2023-10-13T10:44:12;12.32;;;9.57;;
76935;SDS011;65881;52.438;16.744;2023-10-13T10:47:07;14.30;;;9.45;;
76935;SDS011;65881;52.438;16.744;2023-10-13T10:53:22;16.50;;;10.20;;
76935;SDS011;65881;52.438;16.744;2023-10-13T11:09:35;14.68;;;8.45;;
76935;SDS011;65881;52.438;16.744;2023-10-13T11:19:17;16.58;;;8.35;;
76935;SDS011;65881;52.438;16.744;2023-10-13T11:25:04;14.73;;;9.10;;
76935;SDS011;65881;52.438;16.744;2023-10-13T11:31:18;11.15;;;8.00;;
76935;SDS011;65881;52.438;16.744;2023-10-13T11:34:38;10.10;;;8.25;;
76935;SDS011;65881;52.438;16.744;2023-10-13T11:43:43;11.65;;;8.85;;
76935;SDS011;65881;52.438;16.744;2023-10-13T11:46:34;16.05;;;8.85;;
76935;SDS011;65881;52.438;16.744;2023-10-13T11:49:14;13.90;;;9.38;;
76935;SDS011;65881;52.438;16.744;2023-10-13T12:03:52;12.55;;;8.52;;
76935;SDS011;65881;52.438;16.744;2023-10-13T12:07:10;9.85;;;8.48;;
76935;SDS011;65881;52.438;16.744;2023-10-13T12:09:54;14.73;;;8.13;;
76935;SDS011;65881;52.438;16.744;2023-10-13T12:16:32;11.13;;;7.35;;
76935;SDS011;65881;52.438;16.744;2023-10-13T12:20:07;8.45;;;7.43;;
76935;SDS011;65881;52.438;16.744;2023-10-13T12:26:00;9.60;;;7.57;;
76935;SDS011;65881;52.438;16.744;2023-10-13T12:51:39;12.73;;;8.90;;
76935;SDS011;65881;52.438;16.744;2023-10-13T12:54:11;11.18;;;8.05;;
76935;SDS011;65881;52.438;16.744;2023-10-13T12:57:11;10.48;;;8.18;;
76935;SDS011;65881;52.438;16.744;2023-10-13T13:00:27;11.10;;;7.90;;
76935;SDS011;65881;52.438;16.744;2023-10-13T13:02:59;12.30;;;7.85;;
76935;SDS011;65881;52.438;16.744;2023-10-13T13:05:25;10.23;;;7.35;;
76935;SDS011;65881;52.438;16.744;2023-10-13T13:08:23;13.35;;;7.63;;
76935;SDS011;65881;52.438;16.744;2023-10-13T13:14:34;8.85;;;6.90;;
76935;SDS011;65881;52.438;16.744;2023-10-13T13:19:51;9.00;;;7.22;;
76935;SDS011;65881;52.438;16.744;2023-10-13T13:23:10;8.55;;;6.53;;
76935;SDS011;65881;52.438;16.744;2023-10-13T13:38:31;12.07;;;6.68;;
76935;SDS011;65881;52.438;16.744;2023-10-13T13:41:00;11.95;;;7.88;;
76935;SDS011;65881;52.438;16.744;2023-10-13T13:43:37;10.93;;;8.38;;
76935;SDS011;65881;52.438;16.744;2023-10-13T13:49:42;12.63;;;7.70;;
76935;SDS011;65881;52.438;16.744;2023-10-13T13:52:16;13.13;;;8.60;;
76935;SDS011;65881;52.438;16.744;2023-10-13T13:58:12;13.35;;;8.95;;
76935;SDS011;65881;52.438;16.744;2023-10-13T14:00:38;14.57;;;8.15;;
76935;SDS011;65881;52.438;16.744;2023-10-13T14:03:23;12.07;;;8.55;;
76935;SDS011;65881;52.438;16.744;2023-10-13T14:06:43;13.00;;;8.55;;
76935;SDS011;65881;52.438;16.744;2023-10-13T14:09:37;13.27;;;8.90;;
76935;SDS011;65881;52.438;16.744;2023-10-13T14:12:08;10.77;;;8.32;;
76935;SDS011;65881;52.438;16.744;2023-10-13T14:15:21;12.60;;;8.18;;
76935;SDS011;65881;52.438;16.744;2023-10-13T14:17:49;10.95;;;7.70;;
76935;SDS011;65881;52.438;16.744;2023-10-13T14:20:15;12.68;;;7.80;;
76935;SDS011;65881;52.438;16.744;2023-10-13T14:22:44;11.38;;;8.38;;
76935;SDS011;65881;52.438;16.744;2023-10-13T14:25:18;10.30;;;7.55;;
76935;SDS011;65881;52.438;16.744;2023-10-13T14:28:15;13.90;;;7.72;;
76935;SDS011;65881;52.438;16.744;2023-10-13T14:30:43;8.88;;;7.40;;
76935;SDS011;65881;52.438;16.744;2023-10-13T14:36:33;8.88;;;7.28;;
76935;SDS011;65881;52.438;16.744;2023-10-13T14:39:30;9.88;;;7.68;;
76935;SDS011;65881;52.438;16.744;2023-10-13T14:45:26;11.95;;;8.05;;
76935;SDS011;65881;52.438;16.744;2023-10-13T14:50:51;13.13;;;9.23;;
76935;SDS011;65881;52.438;16.744;2023-10-13T14:59:21;11.27;;;7.68;;
76935;SDS011;65881;52.438;16.744;2023-10-13T15:01:47;12.05;;;8.70;;
76935;SDS011;65881;52.438;16.744;2023-10-13T15:04:23;10.32;;;8.10;;
76935;SDS011;65881;52.438;16.744;2023-10-13T15:06:50;10.48;;;7.47;;
76935;SDS011;65881;52.438;16.744;2023-10-13T15:12:31;12.35;;;7.95;;
76935;SDS011;65881;52.438;16.744;2023-10-13T15:15:26;12.43;;;8.80;;
76935;SDS011;65881;52.438;16.744;2023-10-13T15:17:51;10.27;;;8.32;;
76935;SDS011;65881;52.438;16.744;2023-10-13T15:20:18;10.52;;;8.00;;
76935;SDS011;65881;52.438;16.744;2023-10-13T15:22:47;11.25;;;8.80;;
76935;SDS011;65881;52.438;16.744;2023-10-13T15:25:12;13.63;;;10.07;;
76935;SDS011;65881;52.438;16.744;2023-10-13T15:27:57;12.20;;;8.40;;
76935;SDS011;65881;52.438;16.744;2023-10-13T15:30:27;13.50;;;9.85;;
76935;SDS011;65881;52.438;16.744;2023-10-13T15:33:16;11.82;;;8.93;;
76935;SDS011;65881;52.438;16.744;2023-10-13T15:36:05;11.98;;;8.80;;
76935;SDS011;65881;52.438;16.744;2023-10-13T15:38:47;12.20;;;8.15;;
76935;SDS011;65881;52.438;16.744;2023-10-13T15:41:20;10.18;;;8.02;;
76935;SDS011;65881;52.438;16.744;2023-10-13T15:43:49;13.55;;;8.43;;
76935;SDS011;65881;52.438;16.744;2023-10-13T15:46:25;13.75;;;9.57;;
76935;SDS011;65881;52.438;16.744;2023-10-13T15:48:55;13.27;;;7.63;;
76935;SDS011;65881;52.438;16.744;2023-10-13T15:51:24;11.77;;;7.68;;
76935;SDS011;65881;52.438;16.744;2023-10-13T15:53:53;8.13;;;6.70;;
76935;SDS011;65881;52.438;16.744;2023-10-13T15:56:43;10.73;;;7.22;;
76935;SDS011;65881;52.438;16.744;2023-10-13T16:02:18;11.38;;;6.53;;
76935;SDS011;65881;52.438;16.744;2023-10-13T16:04:45;9.00;;;7.13;;
76935;SDS011;65881;52.438;16.744;2023-10-13T16:07:41;12.43;;;7.65;;
76935;SDS011;65881;52.438;16.744;2023-10-13T16:10:25;9.35;;;7.72;;
76935;SDS011;65881;52.438;16.744;2023-10-13T16:12:55;14.38;;;9.00;;
76935;SDS011;65881;52.438;16.744;2023-10-13T16:16:41;9.40;;;7.38;;
76935;SDS011;65881;52.438;16.744;2023-10-13T16:19:27;11.00;;;7.65;;
76935;SDS011;65881;52.438;16.744;2023-10-13T16:22:03;10.93;;;8.13;;
76935;SDS011;65881;52.438;16.744;2023-10-13T16:24:30;13.70;;;8.55;;
76935;SDS011;65881;52.438;16.744;2023-10-13T16:33:05;14.18;;;8.48;;
76935;SDS011;65881;52.438;16.744;2023-10-13T16:35:31;13.15;;;8.60;;
76935;SDS011;65881;52.438;16.744;2023-10-13T16:38:24;12.15;;;8.82;;
76935;SDS011;65881;52.438;16.744;2023-10-13T16:40:53;18.02;;;9.38;;
76935;SDS011;65881;52.438;16.744;2023-10-13T16:46:12;13.40;;;9.18;;
76935;SDS011;65881;52.438;16.744;2023-10-13T16:48:46;17.48;;;10.70;;
76935;SDS011;65881;52.438;16.744;2023-10-13T16:54:37;15.38;;;9.10;;
76935;SDS011;65881;52.438;16.744;2023-10-13T16:57:15;12.43;;;9.07;;
76935;SDS011;65881;52.438;16.744;2023-10-13T17:00:02;12.88;;;9.20;;
76935;SDS011;65881;52.438;16.744;2023-10-13T17:02:41;13.38;;;9.02;;
76935;SDS011;65881;52.438;16.744;2023-10-13T17:05:16;19.95;;;9.57;;
76935;SDS011;65881;52.438;16.744;2023-10-13T17:08:28;13.43;;;9.07;;
76935;SDS011;65881;52.438;16.744;2023-10-13T17:11:09;14.30;;;9.88;;
76935;SDS011;65881;52.438;16.744;2023-10-13T17:13:53;14.82;;;10.00;;
76935;SDS011;65881;52.438;16.744;2023-10-13T17:19:13;19.55;;;10.80;;
76935;SDS011;65881;52.438;16.744;2023-10-13T17:21:54;14.23;;;9.95;;
76935;SDS011;65881;52.438;16.744;2023-10-13T17:24:40;21.23;;;10.55;;
76935;SDS011;65881;52.438;16.744;2023-10-13T17:30:45;13.20;;;9.52;;
76935;SDS011;65881;52.438;16.744;2023-10-13T17:36:10;19.77;;;9.80;;
76935;SDS011;65881;52.438;16.744;2023-10-13T17:38:54;22.27;;;9.48;;
76935;SDS011;65881;52.438;16.744;2023-10-13T17:41:22;12.60;;;8.80;;
76935;SDS011;65881;52.438;16.744;2023-10-13T17:43:54;17.08;;;10.73;;
76935;SDS011;65881;52.438;16.744;2023-10-13T17:46:27;16.58;;;9.77;;
76935;SDS011;65881;52.438;16.744;2023-10-13T17:49:04;23.20;;;9.90;;
76935;SDS011;65881;52.438;16.744;2023-10-13T17:51:35;13.73;;;9.65;;
76935;SDS011;65881;52.438;16.744;2023-10-13T17:54:01;15.30;;;9.68;;
76935;SDS011;65881;52.438;16.744;2023-10-13T17:56:34;19.08;;;10.15;;
76935;SDS011;65881;52.438;16.744;2023-10-13T18:02:12;13.65;;;9.07;;
76935;SDS011;65881;52.438;16.744;2023-10-13T18:04:56;15.25;;;8.45;;
76935;SDS011;65881;52.438;16.744;2023-10-13T18:07:28;15.00;;;9.13;;
76935;SDS011;65881;52.438;16.744;2023-10-13T18:09:57;16.30;;;10.05;;
76935;SDS011;65881;52.438;16.744;2023-10-13T18:12:22;12.85;;;9.73;;
76935;SDS011;65881;52.438;16.744;2023-10-13T18:14:49;13.82;;;8.63;;
76935;SDS011;65881;52.438;16.744;2023-10-13T18:17:15;13.63;;;9.60;;
76935;SDS011;65881;52.438;16.744;2023-10-13T18:19:41;15.80;;;8.52;;
76935;SDS011;65881;52.438;16.744;2023-10-13T18:22:07;13.23;;;8.15;;
76935;SDS011;65881;52.438;16.744;2023-10-13T18:24:41;13.73;;;9.10;;
76935;SDS011;65881;52.438;16.744;2023-10-13T18:27:07;15.60;;;8.40;;
76935;SDS011;65881;52.438;16.744;2023-10-13T18:29:33;15.52;;;7.63;;
76935;SDS011;65881;52.438;16.744;2023-10-13T18:31:59;12.65;;;8.30;;
76935;SDS011;65881;52.438;16.744;2023-10-13T18:34:24;11.98;;;7.82;;
76935;SDS011;65881;52.438;16.744;2023-10-13T18:36:50;12.00;;;7.72;;
76935;SDS011;65881;52.438;16.744;2023-10-13T18:39:17;11.65;;;7.65;;
76935;SDS011;65881;52.438;16.744;2023-10-13T18:41:44;12.98;;;8.15;;
76935;SDS011;65881;52.438;16.744;2023-10-13T18:44:10;12.95;;;7.30;;
76935;SDS011;65881;52.438;16.744;2023-10-13T18:46:37;11.77;;;7.65;;
76935;SDS011;65881;52.438;16.744;2023-10-13T18:49:03;13.88;;;8.00;;
76935;SDS011;65881;52.438;16.744;2023-10-13T18:51:30;13.25;;;7.85;;
76935;SDS011;65881;52.438;16.744;2023-10-13T18:53:57;13.13;;;7.63;;
76935;SDS011;65881;52.438;16.744;2023-10-13T18:56:26;16.02;;;7.80;;
76935;SDS011;65881;52.438;16.744;2023-10-13T18:58:53;14.20;;;8.52;;
76935;SDS011;65881;52.438;16.744;2023-10-13T19:01:20;13.05;;;7.20;;
76935;SDS011;65881;52.438;16.744;2023-10-13T19:03:53;13.88;;;7.38;;
76935;SDS011;65881;52.438;16.744;2023-10-13T19:06:20;13.35;;;7.82;;
76935;SDS011;65881;52.438;16.744;2023-10-13T19:08:46;10.40;;;7.28;;
76935;SDS011;65881;52.438;16.744;2023-10-13T19:11:17;14.77;;;7.68;;
76935;SDS011;65881;52.438;16.744;2023-10-13T19:13:44;11.70;;;6.68;;
76935;SDS011;65881;52.438;16.744;2023-10-13T19:16:12;14.38;;;7.22;;
76935;SDS011;65881;52.438;16.744;2023-10-13T19:18:39;12.30;;;5.88;;
76935;SDS011;65881;52.438;16.744;2023-10-13T19:21:34;11.75;;;6.57;;
76935;SDS011;65881;52.438;16.744;2023-10-13T19:24:01;11.32;;;7.90;;
76935;SDS011;65881;52.438;16.744;2023-10-13T19:26:28;15.82;;;7.93;;
76935;SDS011;65881;52.438;16.744;2023-10-13T19:28:58;13.85;;;6.70;;
76935;SDS011;65881;52.438;16.744;2023-10-13T19:31:33;8.93;;;6.60;;
76935;SDS011;65881;52.438;16.744;2023-10-13T19:36:56;11.77;;;7.28;;
76935;SDS011;65881;52.438;16.744;2023-10-13T19:39:28;15.10;;;7.53;;
76935;SDS011;65881;52.438;16.744;2023-10-13T19:42:07;12.57;;;7.13;;
76935;SDS011;65881;52.438;16.744;2023-10-13T19:44:48;12.82;;;7.57;;
76935;SDS011;65881;52.438;16.744;2023-10-13T19:47:24;12.30;;;7.45;;
76935;SDS011;65881;52.438;16.744;2023-10-13T19:52:50;12.52;;;7.05;;
76935;SDS011;65881;52.438;16.744;2023-10-13T19:55:16;13.32;;;8.45;;
76935;SDS011;65881;52.438;16.744;2023-10-13T19:57:51;13.60;;;7.13;;
76935;SDS011;65881;52.438;16.744;2023-10-13T20:00:17;14.05;;;7.18;;
76935;SDS011;65881;52.438;16.744;2023-10-13T20:02:46;10.35;;;6.55;;
76935;SDS011;65881;52.438;16.744;2023-10-13T20:05:30;13.90;;;6.57;;
76935;SDS011;65881;52.438;16.744;2023-10-13T20:08:17;12.27;;;6.88;;
76935;SDS011;65881;52.438;16.744;2023-10-13T20:10:45;10.77;;;7.65;;
76935;SDS011;65881;52.438;16.744;2023-10-13T20:16:53;19.27;;;8.40;;
76935;SDS011;65881;52.438;16.744;2023-10-13T20:22:22;16.30;;;7.80;;
76935;SDS011;65881;52.438;16.744;2023-10-13T20:24:57;14.98;;;6.82;;
76935;SDS011;65881;52.438;16.744;2023-10-13T20:30:41;15.50;;;7.95;;
76935;SDS011;65881;52.438;16.744;2023-10-13T20:38:54;12.93;;;7.20;;
76935;SDS011;65881;52.438;16.744;2023-10-13T20:45:17;12.55;;;7.03;;
76935;SDS011;65881;52.438;16.744;2023-10-13T20:54:04;15.48;;;9.35;;
76935;SDS011;65881;52.438;16.744;2023-10-13T20:56:50;11.95;;;6.65;;
76935;SDS011;65881;52.438;16.744;2023-10-13T21:02:34;16.23;;;8.07;;
76935;SDS011;65881;52.438;16.744;2023-10-13T21:05:15;14.40;;;7.20;;
76935;SDS011;65881;52.438;16.744;2023-10-13T21:07:46;15.20;;;7.22;;
76935;SDS011;65881;52.438;16.744;2023-10-13T21:10:29;13.13;;;7.05;;
76935;SDS011;65881;52.438;16.744;2023-10-13T21:12:58;15.93;;;7.22;;
76935;SDS011;65881;52.438;16.744;2023-10-13T21:15:45;13.43;;;7.43;;
76935;SDS011;65881;52.438;16.744;2023-10-13T21:18:14;11.65;;;7.05;;
76935;SDS011;65881;52.438;16.744;2023-10-13T21:21:27;13.40;;;8.10;;
76935;SDS011;65881;52.438;16.744;2023-10-13T21:24:39;12.98;;;8.07;;
76935;SDS011;65881;52.438;16.744;2023-10-13T21:28:02;13.93;;;7.00;;
76935;SDS011;65881;52.438;16.744;2023-10-13T21:36:55;12.75;;;8.07;;
76935;SDS011;65881;52.438;16.744;2023-10-13T21:42:11;11.98;;;6.72;;
76935;SDS011;65881;52.438;16.744;2023-10-13T21:44:37;14.73;;;7.28;;
76935;SDS011;65881;52.438;16.744;2023-10-13T21:47:03;10.93;;;7.07;;
76935;SDS011;65881;52.438;16.744;2023-10-13T21:49:28;12.73;;;7.57;;
76935;SDS011;65881;52.438;16.744;2023-10-13T21:51:55;15.55;;;7.47;;
76935;SDS011;65881;52.438;16.744;2023-10-13T21:54:21;14.40;;;8.27;;
76935;SDS011;65881;52.438;16.744;2023-10-13T22:29:24;14.95;;;7.68;;
76935;SDS011;65881;52.438;16.744;2023-10-13T22:35:25;12.48;;;7.93;;
76935;SDS011;65881;52.438;16.744;2023-10-13T22:37:53;13.57;;;7.65;;
76935;SDS011;65881;52.438;16.744;2023-10-13T22:40:21;17.02;;;8.45;;
76935;SDS011;65881;52.438;16.744;2023-10-13T22:42:47;15.50;;;8.73;;
76935;SDS011;65881;52.438;16.744;2023-10-13T22:45:15;11.57;;;6.72;;
76935;SDS011;65881;52.438;16.744;2023-10-13T22:57:00;12.80;;;7.80;;
76935;SDS011;65881;52.438;16.744;2023-10-13T23:09:27;13.52;;;7.50;;
76935;SDS011;65881;52.438;16.744;2023-10-13T23:12:05;13.27;;;6.80;;
76935;SDS011;65881;52.438;16.744;2023-10-13T23:24:55;11.07;;;6.72;;
76935;SDS011;65881;52.438;16.744;2023-10-13T23:28:08;15.18;;;8.48;;
76935;SDS011;65881;52.438;16.744;2023-10-13T23:30:36;10.57;;;7.38;;
76935;SDS011;65881;52.438;16.744;2023-10-13T23:33:08;13.18;;;6.00;;
76935;SDS011;65881;52.438;16.744;2023-10-13T23:38:58;10.27;;;6.40;;
76935;SDS011;65881;52.438;16.744;2023-10-13T23:41:53;15.02;;;7.10;;
76935;SDS011;65881;52.438;16.744;2023-10-13T23:44:50;8.55;;;5.88;;
76935;SDS011;65881;52.438;16.744;2023-10-13T23:47:32;12.02;;;7.50;;
76935;SDS011;65881;52.438;16.744;2023-10-13T23:50:04;12.20;;;6.22;;
76935;SDS011;65881;52.438;16.744;2023-10-13T23:52:33;12.25;;;6.10;;
76935;SDS011;65881;52.438;16.744;2023-10-13T23:55:03;11.02;;;6.80;;
76935;SDS011;65881;52.438;16.744;2023-10-13T23:57:42;13.88;;;6.60;;
